Rechercher aéroport 
image banner adimage banner ad
image banner ad

SBCO - Canoas Airport

Situé à Porto Alegre, Brazil

ICAO - SBCO, IATA - QNS

Données fournies par Airmate  

Information générale

Coordonnées: S29°56'45" W51°8'40"
Élévation : 26 feet MSL.
 
Voir autres Aéroports à Rio Grande do Sul

Données opérationnelles

Accessible au public
Heure actuelle UTC:
Heure actuelle locale:
Météo
METAR: SBCO 301600Z 35005KT 9999 SCT047 BKN100 23/21 Q1009 RETSRA
TAF: TAF SBCO 300900Z 3012/3024 36007KT 6000 TSRA SCT035 FEW045CB TN20/3012Z TX24/3018Z BECMG 3018/3020 08006KT CAVOK RMK PED
Voir NOTAMs / SUP AIP / TFR affectant cet aéroport [VIEW]
Fréquences de communication: [VIEW]

Pistes:

Identifiant RWYQFULongueur (ft)Largeur (ft)SurfaceLDA (ft)
129026148ASP
309026148ASP
139026148UNK
319026148UNK

Coordonnées de l'aéroport

Adresse: Porto Alegre Brazil

Autres services d'aviation

Écoles de pilotage

Flight Aviation School

Flight Aviation School

Vue satellite de SBCO